Time;durP1;ratioP1;P1;durP2;ratioP2;P2;SDS_P1;SDS_P2;PMS_P1;PMS_P2;Temp;Humidity;BMP_temperature;BMP_pressure;BME280_temperature;BME280_humidity;BME280_pressure;Samples;Min_cycle;Max_cycle;Signal;HPM_P1;HPM_P2
2022/02/05 00:02:42;;;;;;;7.80;2.97;;;;;;;12.81;40.22;101682.66;5014789;28;20575;-76
2022/02/05 00:05:09;;;;;;;8.80;2.75;;;;;;;12.70;40.56;101691.09;5014873;28;20058;-77
2022/02/05 00:07:39;;;;;;;8.65;2.85;;;;;;;12.70;40.44;101702.06;5014726;28;20025;-76
2022/02/05 00:10:25;;;;;;;10.07;2.97;;;;;;;12.88;40.21;101710.50;5014809;28;20045;-76
2022/02/05 00:43:10;;;;;;;8.52;3.10;;;;;;;12.76;40.56;101645.16;5014248;28;20396;-76
2022/02/05 00:45:39;;;;;;;10.45;3.35;;;;;;;12.81;40.50;101644.25;5014098;28;20388;-76
2022/02/05 00:48:06;;;;;;;11.25;3.35;;;;;;;12.87;40.45;101640.28;5014055;28;20024;-77
2022/02/05 00:50:34;;;;;;;13.13;3.40;;;;;;;12.74;40.71;101639.19;5014046;28;20103;-77
2022/02/05 00:53:09;;;;;;;10.00;3.10;;;;;;;12.76;40.88;101639.69;5013964;28;20033;-77
2022/02/05 00:55:39;;;;;;;9.95;3.58;;;;;;;12.86;40.70;101644.16;5013985;28;20037;-77
2022/02/05 00:58:06;;;;;;;15.80;3.75;;;;;;;12.76;40.93;101642.41;5013861;28;20026;-76
2022/02/05 01:00:34;;;;;;;10.10;4.07;;;;;;;12.78;40.89;101645.69;5013896;28;20026;-76
2022/02/05 01:03:00;;;;;;;9.98;3.67;;;;;;;12.78;40.93;101649.25;5013876;28;20026;-76
2022/02/05 01:05:27;;;;;;;11.80;3.22;;;;;;;12.76;40.85;101647.91;5013872;28;20026;-77
2022/02/05 01:07:57;;;;;;;14.10;3.67;;;;;;;12.66;41.02;101659.91;5013730;28;20093;-77
2022/02/05 01:10:25;;;;;;;;;;;;;;;12.68;41.19;101659.59;5014128;28;20638;-76
2022/02/05 01:12:56;;;;;;;9.73;3.10;;;;;;;12.78;40.84;101657.47;5011939;28;20349;-77
2022/02/05 01:15:25;;;;;;;9.95;3.20;;;;;;;12.81;40.85;101667.00;5013660;28;20057;-77
2022/02/05 01:17:58;;;;;;;6.90;2.70;;;;;;;12.74;41.09;101661.94;5013545;28;20036;-76
2022/02/05 01:23:12;;;;;;;10.95;2.97;;;;;;;12.74;41.06;101658.38;5013864;28;20036;-76
2022/02/05 01:25:44;;;;;;;6.15;2.92;;;;;;;12.69;41.35;101655.72;5013453;28;20029;-77
2022/02/05 01:28:14;;;;;;;9.20;2.90;;;;;;;12.73;41.17;101659.50;5013393;28;20037;-76
2022/02/05 01:30:44;;;;;;;8.05;2.83;;;;;;;12.84;41.12;101654.59;5013702;28;20113;-76
2022/02/05 01:36:21;;;;;;;7.18;2.53;;;;;;;12.72;41.34;101646.91;5015692;28;20281;-77
2022/02/05 01:57:20;;;;;;;13.85;3.53;;;;;;;12.79;41.61;101639.09;5015478;28;20033;-77
2022/02/05 02:05:27;;;;;;;7.97;2.28;;;;;;;12.93;41.52;101625.38;5016102;28;20079;-77
2022/02/05 02:15:41;;;;;;;7.88;3.30;;;;;;;13.00;41.53;101612.84;5016413;28;20026;-77
2022/02/05 02:26:13;;;;;;;15.18;2.70;;;;;;;13.09;41.66;101601.16;4997167;28;20057;-77
2022/02/05 02:31:32;;;;;;;9.65;3.15;;;;;;;13.09;41.85;101593.72;4992551;28;20046;-77
2022/02/05 02:34:01;;;;;;;6.57;3.08;;;;;;;13.10;41.84;101595.34;4999601;28;20022;-76
2022/02/05 02:36:35;;;;;;;10.43;3.83;;;;;;;13.10;41.98;101600.84;5012687;28;20036;-76
2022/02/05 02:39:08;;;;;;;10.77;2.60;;;;;;;13.04;42.13;101594.63;5009544;28;20041;-77
2022/02/05 02:41:42;;;;;;;9.15;2.72;;;;;;;12.97;42.43;101593.44;4996629;28;20030;-77
2022/02/05 02:44:08;;;;;;;9.00;2.50;;;;;;;12.99;42.58;101586.50;4995650;28;20025;-77
2022/02/05 02:46:34;;;;;;;9.57;2.58;;;;;;;13.03;42.51;101587.53;4995788;28;20118;-77
2022/02/05 02:49:02;;;;;;;9.32;2.63;;;;;;;13.13;42.25;101591.97;4996003;28;20393;-77
2022/02/05 02:57:11;;;;;;;5.72;2.22;;;;;;;13.32;42.03;101578.13;4998513;28;20538;-76
2022/02/05 02:59:49;;;;;;;9.90;2.67;;;;;;;13.44;41.76;101580.28;5012396;28;20022;-76
2022/02/05 03:02:19;;;;;;;12.35;2.53;;;;;;;13.20;42.42;101567.69;5012493;28;20087;-76
2022/02/05 03:04:44;;;;;;;8.02;2.33;;;;;;;13.23;42.18;101583.56;5012229;28;20034;-77
2022/02/05 03:07:10;;;;;;;13.80;3.30;;;;;;;13.23;42.32;101580.00;5012193;28;20048;-76
2022/02/05 03:09:36;;;;;;;15.43;3.13;;;;;;;13.28;42.12;101580.66;5000073;28;20045;-77
2022/02/05 03:12:03;;;;;;;11.70;2.95;;;;;;;13.17;42.14;101576.53;4996303;28;20032;-77
2022/02/05 03:14:29;;;;;;;9.98;3.20;;;;;;;13.20;42.38;101583.34;5008187;28;20029;-76
2022/02/05 03:17:02;;;;;;;18.20;3.13;;;;;;;13.22;42.23;101575.59;5012119;28;20495;-76
2022/02/05 03:19:28;;;;;;;8.50;2.38;;;;;;;13.30;42.09;101572.94;5012082;28;20057;-77
2022/02/05 03:21:53;;;;;;;9.52;2.60;;;;;;;13.15;42.40;101566.94;5012026;28;20058;-76
2022/02/05 03:24:19;;;;;;;10.75;2.83;;;;;;;13.08;42.45;101567.41;5012023;28;20105;-76
2022/02/05 03:26:45;;;;;;;12.52;2.35;;;;;;;13.24;42.33;101554.97;5012001;28;20068;-76
2022/02/05 03:29:12;;;;;;;9.88;2.20;;;;;;;13.18;42.61;101547.16;5005515;28;20120;-77
2022/02/05 03:31:39;;;;;;;10.63;2.65;;;;;;;13.24;42.47;101537.69;5005463;28;20129;-77
2022/02/05 03:34:06;;;;;;;12.50;3.65;;;;;;;13.34;42.04;101523.72;5007230;28;20379;-77
2022/02/05 03:36:36;;;;;;;7.93;2.55;;;;;;;13.35;42.27;101508.06;5012036;28;20029;-76
2022/02/05 03:39:04;;;;;;;12.80;3.08;;;;;;;13.33;42.43;101503.69;5015015;28;20038;-76
2022/02/05 03:41:30;;;;;;;12.55;2.88;;;;;;;13.27;42.61;101490.41;5014999;28;20033;-77
2022/02/05 03:43:55;;;;;;;11.68;2.40;;;;;;;13.33;42.72;101484.47;5015339;28;20021;-76
2022/02/05 03:46:21;;;;;;;7.50;2.70;;;;;;;13.47;42.21;101487.16;5015576;28;20038;-76
2022/02/05 03:48:46;;;;;;;11.10;2.47;;;;;;;13.51;42.09;101490.06;5015169;28;20080;-76
2022/02/05 03:51:12;;;;;;;12.23;3.72;;;;;;;13.49;42.21;101486.84;5015502;28;20096;-77
2022/02/05 03:53:37;;;;;;;12.57;2.47;;;;;;;13.40;42.53;101478.56;5015168;28;20033;-77
2022/02/05 03:56:03;;;;;;;10.57;2.38;;;;;;;13.47;42.42;101473.44;5015020;28;20037;-77
2022/02/05 03:58:29;;;;;;;9.35;3.38;;;;;;;13.50;42.33;101474.72;5015001;28;20026;-76
2022/02/05 04:00:54;;;;;;;17.20;3.60;;;;;;;13.52;42.30;101456.00;5015001;28;20026;-77
2022/02/05 04:03:20;;;;;;;10.20;2.53;;;;;;;13.49;42.36;101451.94;5014649;28;20030;-77
2022/02/05 04:05:46;;;;;;;20.90;5.22;;;;;;;13.52;42.33;101453.25;5014959;28;20053;-76
2022/02/05 04:08:13;;;;;;;8.55;3.42;;;;;;;13.51;42.46;101448.88;5014869;28;20058;-76
2022/02/05 04:10:52;;;;;;;9.32;2.75;;;;;;;13.58;42.41;101439.06;5014858;28;20029;-77
2022/02/05 04:16:36;;;;;;;9.85;2.70;;;;;;;13.47;42.79;101432.25;5014811;28;20435;-77
2022/02/05 04:18:56;;;;;;;8.05;2.90;;;;;;;13.48;42.77;101417.41;5013505;28;20523;-76
2022/02/05 04:21:23;;;;;;;10.18;2.58;;;;;;;13.63;42.55;101423.59;5014791;28;20061;-76
2022/02/05 04:23:50;;;;;;;13.38;3.03;;;;;;;13.59;42.70;101423.41;5015857;28;20041;-77
2022/02/05 04:26:18;;;;;;;9.90;2.42;;;;;;;13.59;42.62;101418.72;5027828;28;20064;-77
2022/02/05 04:28:44;;;;;;;9.85;3.10;;;;;;;13.63;42.55;101418.09;5034558;28;20029;-77
2022/02/05 04:31:10;;;;;;;9.13;2.78;;;;;;;13.50;43.12;101403.34;5033951;28;20044;-77
2022/02/05 04:33:36;;;;;;;12.10;2.90;;;;;;;13.66;42.59;101393.56;5034249;28;20056;-77
2022/02/05 04:36:04;;;;;;;9.48;2.65;;;;;;;13.59;43.03;101390.44;5034138;28;20079;-77
2022/02/05 04:38:31;;;;;;;11.65;3.28;;;;;;;13.53;43.00;101383.50;5034153;28;20021;-77
2022/02/05 04:41:12;;;;;;;12.43;3.08;;;;;;;13.65;42.89;101382.88;5034287;28;20029;-77
2022/02/05 04:46:48;;;;;;;7.95;2.83;;;;;;;13.63;42.98;101383.22;5034246;28;20455;-77
2022/02/05 04:57:57;;;;;;;11.68;2.97;;;;;;;13.78;43.05;101366.31;5034083;28;20518;-76
2022/02/05 05:05:22;;;;;;;13.75;3.60;;;;;;;14.00;42.76;101370.06;5033936;28;20116;-77
2022/02/05 05:13:22;;;;;;;9.68;2.55;;;;;;;14.12;42.61;101356.50;5033455;28;20451;-77
2022/02/05 05:21:14;;;;;;;9.05;2.20;;;;;;;14.36;42.49;101339.53;5012062;28;20120;-77
2022/02/05 05:23:39;;;;;;;8.73;2.40;;;;;;;14.01;43.62;101349.69;5017113;28;20446;-77
2022/02/05 05:26:05;;;;;;;9.00;2.22;;;;;;;14.23;43.21;101333.06;5033046;28;20013;-76
2022/02/05 05:28:31;;;;;;;11.52;2.75;;;;;;;14.34;42.96;101328.03;5033222;28;20027;-76
2022/02/05 05:30:56;;;;;;;11.65;3.13;;;;;;;14.45;42.91;101343.09;5011788;28;20026;-77
2022/02/05 05:33:22;;;;;;;16.70;2.70;;;;;;;14.31;43.28;101324.00;5009562;28;20041;-77
2022/02/05 05:35:48;;;;;;;10.20;2.58;;;;;;;14.27;43.47;101322.22;4997600;28;20029;-77
2022/02/05 05:38:13;;;;;;;5.70;2.50;;;;;;;14.51;43.26;101327.25;4996968;28;20034;-77
2022/02/05 05:40:41;;;;;;;9.90;2.47;;;;;;;14.57;42.85;101321.25;4996946;28;20034;-77
2022/02/05 05:43:18;;;;;;;6.20;2.13;;;;;;;14.72;42.72;101322.69;4997168;28;20022;-77
2022/02/05 05:46:30;;;;;;;8.57;2.42;;;;;;;14.63;43.04;101308.16;4997533;28;20033;-77
2022/02/05 05:49:12;;;;;;;10.65;2.60;;;;;;;14.76;42.54;101301.66;4994898;28;20042;-77
2022/02/05 05:51:27;;;;;;;13.65;2.88;;;;;;;14.74;42.83;101294.88;4995884;28;20038;-77
2022/02/05 05:53:53;;;;;;;16.73;2.70;;;;;;;14.66;42.84;101285.50;5012968;28;20037;-77
2022/02/05 05:56:22;;;;;;;15.35;3.47;;;;;;;14.68;42.82;101284.03;5013187;28;20030;-77
2022/02/05 05:58:49;;;;;;;17.15;4.15;;;;;;;14.81;42.65;101265.72;5013244;28;20396;-77
2022/02/05 06:01:15;;;;;;;8.75;2.83;;;;;;;14.72;43.01;101262.19;5012884;28;20029;-77
2022/02/05 06:03:41;;;;;;;10.15;2.60;;;;;;;14.73;42.89;101246.47;5003488;28;20030;-77
2022/02/05 06:06:07;;;;;;;9.43;2.55;;;;;;;14.47;43.57;101235.56;4997022;28;20022;-77
2022/02/05 06:08:32;;;;;;;8.40;2.85;;;;;;;14.58;43.55;101236.81;4997833;28;20499;-77
2022/02/05 06:10:58;;;;;;;10.10;3.10;;;;;;;14.59;43.13;101233.75;4997018;28;20448;-77
2022/02/05 06:13:23;;;;;;;14.93;2.95;;;;;;;14.74;43.09;101243.44;4995112;28;20044;-77
2022/02/05 06:15:51;;;;;;;13.95;2.85;;;;;;;14.84;42.83;101229.31;4996732;28;20100;-77
2022/02/05 06:18:17;;;;;;;6.03;2.40;;;;;;;14.92;42.55;101217.44;4995941;28;20068;-77
2022/02/05 06:20:43;;;;;;;10.50;2.75;;;;;;;14.79;43.01;101199.22;4996447;28;20049;-77
2022/02/05 06:23:08;;;;;;;9.63;2.80;;;;;;;14.79;42.95;101198.41;5010967;28;20034;-76
2022/02/05 06:25:35;;;;;;;9.70;2.40;;;;;;;14.72;42.99;101198.91;5012671;28;20033;-76
2022/02/05 06:28:01;;;;;;;9.35;2.50;;;;;;;14.59;43.71;101198.00;5012680;28;20030;-76
2022/02/05 06:30:27;;;;;;;8.95;2.70;;;;;;;14.77;43.17;101192.44;5012569;28;20025;-76
2022/02/05 06:32:53;;;;;;;7.60;2.63;;;;;;;14.78;43.20;101186.59;5011088;28;20054;-76
2022/02/05 06:35:19;;;;;;;14.55;3.50;;;;;;;14.89;43.06;101201.63;5012431;28;20092;-76
2022/02/05 06:37:46;;;;;;;8.88;2.17;;;;;;;14.93;43.06;101202.56;5012772;28;20026;-76
2022/02/05 06:40:12;;;;;;;15.63;3.00;;;;;;;15.03;43.13;101200.56;5012433;28;20034;-76
2022/02/05 06:42:38;;;;;;;8.73;3.28;;;;;;;14.99;43.13;101190.22;5012421;28;20032;-76
2022/02/05 06:45:04;;;;;;;10.75;2.67;;;;;;;14.83;43.66;101186.41;5012418;28;20108;-76
2022/02/05 06:47:30;;;;;;;10.02;2.92;;;;;;;15.15;43.00;101197.91;5012333;28;20523;-76
2022/02/05 06:49:55;;;;;;;8.95;2.65;;;;;;;15.20;43.01;101192.22;5012370;28;20030;-76
2022/02/05 06:52:21;;;;;;;9.63;3.15;;;;;;;15.25;42.93;101181.81;5012325;28;20054;-76
2022/02/05 06:54:47;;;;;;;8.73;2.45;;;;;;;15.24;42.96;101176.63;5012499;28;20076;-76
2022/02/05 06:57:13;;;;;;;9.80;2.45;;;;;;;15.24;42.96;101173.88;5012377;28;20026;-76
2022/02/05 06:59:38;;;;;;;10.43;2.95;;;;;;;15.36;42.67;101165.72;5012552;28;20449;-76
2022/02/05 07:02:05;;;;;;;6.40;2.10;;;;;;;15.47;42.46;101168.88;5012286;28;20381;-76
2022/02/05 07:04:31;;;;;;;5.78;2.15;;;;;;;15.47;42.53;101157.84;5012220;28;20034;-76
2022/02/05 07:06:58;;;;;;;11.65;2.42;;;;;;;15.67;42.14;101148.00;5012304;28;20104;-76
2022/02/05 07:09:26;;;;;;;6.15;2.22;;;;;;;15.59;42.55;101146.91;5012140;28;20030;-76
2022/02/05 07:11:53;;;;;;;8.13;2.35;;;;;;;15.61;42.45;101149.31;5013647;28;20388;-76
2022/02/05 07:14:23;;;;;;;6.88;2.40;;;;;;;15.45;42.60;101118.84;5015831;28;20026;-77
2022/02/05 07:16:56;;;;;;;11.55;2.65;;;;;;;15.70;42.33;101114.25;5015933;28;20030;-76
2022/02/05 07:19:42;;;;;;;10.70;2.70;;;;;;;15.54;42.82;101112.09;5015858;28;20113;-76
2022/02/05 07:22:09;;;;;;;7.50;2.45;;;;;;;15.75;42.51;101117.63;5015875;28;20038;-77
2022/02/05 07:24:55;;;;;;;8.00;2.45;;;;;;;15.71;42.46;101110.38;5016075;28;20431;-76
2022/02/05 07:30:05;;;;;;;6.28;2.05;;;;;;;15.66;42.77;101111.41;5015939;28;20396;-76
2022/02/05 07:32:31;;;;;;;10.38;1.80;;;;;;;15.47;42.91;101098.06;5015348;28;20066;-76
2022/02/05 07:34:56;;;;;;;11.95;2.50;;;;;;;15.67;42.46;101090.97;5001844;28;20037;-77
2022/02/05 07:37:22;;;;;;;9.02;2.90;;;;;;;15.68;42.60;101098.09;5003114;28;20030;-76
2022/02/05 07:39:48;;;;;;;7.40;1.95;;;;;;;15.65;42.49;101086.94;5015503;28;20412;-76
2022/02/05 07:42:17;;;;;;;10.00;2.28;;;;;;;15.49;42.80;101072.94;5015450;28;20030;-76
2022/02/05 07:44:42;;;;;;;5.72;3.08;;;;;;;15.63;42.83;101058.91;5015395;28;20469;-76
2022/02/05 07:47:08;;;;;;;6.13;2.45;;;;;;;15.45;43.00;101066.53;5015306;28;20041;-76
2022/02/05 07:49:52;;;;;;;12.75;2.70;;;;;;;15.71;42.64;101063.53;5015325;28;20037;-76
2022/02/05 07:52:17;;;;;;;13.57;4.55;;;;;;;15.85;42.31;101061.28;5015195;28;20034;-76
2022/02/05 07:54:43;;;;;;;8.07;2.42;;;;;;;16.05;42.06;101068.69;5015112;28;20029;-76
2022/02/05 07:57:09;;;;;;;11.77;2.67;;;;;;;15.88;42.19;101065.31;5015086;28;20030;-76
2022/02/05 07:59:35;;;;;;;8.82;2.97;;;;;;;15.94;42.38;101064.75;5015122;28;20496;-76
2022/02/05 08:02:01;;;;;;;7.13;2.40;;;;;;;16.05;42.09;101068.69;5015052;28;20633;-76
2022/02/05 08:04:26;;;;;;;7.03;2.05;;;;;;;16.14;41.87;101057.53;5015028;28;20484;-76
2022/02/05 08:06:52;;;;;;;6.93;2.67;;;;;;;16.17;42.00;101048.59;5015021;28;20170;-76
2022/02/05 08:09:21;;;;;;;8.65;2.60;;;;;;;16.15;41.75;101055.59;5014868;28;20026;-76
2022/02/05 08:11:53;;;;;;;7.07;2.45;;;;;;;16.13;42.04;101060.66;5008435;28;20025;-78
2022/02/05 08:14:20;;;;;;;8.45;2.33;;;;;;;15.94;42.41;101063.94;5001326;28;20096;-77
2022/02/05 08:19:16;;;;;;;11.05;4.30;;;;;;;16.04;42.29;101058.00;5019024;28;20037;-77
2022/02/05 08:21:42;;;;;;;9.25;1.88;;;;;;;16.08;42.19;101043.19;5018118;28;20033;-77
2022/02/05 08:24:07;;;;;;;10.63;2.72;;;;;;;16.18;41.82;101036.44;5016386;28;20199;-78
2022/02/05 08:26:35;;;;;;;9.52;2.55;;;;;;;16.25;41.95;101038.63;5019050;28;20733;-77
2022/02/05 08:29:01;;;;;;;9.88;2.35;;;;;;;16.25;41.69;101024.84;5011642;28;20026;-76
2022/02/05 08:31:27;;;;;;;8.48;2.58;;;;;;;16.18;41.97;101024.59;5003377;28;20060;-76
2022/02/05 08:33:53;;;;;;;8.73;3.30;;;;;;;16.15;42.48;101017.00;5014781;28;20103;-77
2022/02/05 08:36:22;;;;;;;9.65;2.15;;;;;;;16.20;41.87;101017.59;5014277;28;20497;-80
2022/02/05 08:38:52;;;;;;;13.57;3.28;;;;;;;16.14;42.01;101007.94;5002414;28;20041;-77
2022/02/05 08:41:18;;;;;;;8.82;2.47;;;;;;;16.08;42.51;101006.53;4998922;28;20053;-77
2022/02/05 08:43:44;;;;;;;15.02;3.17;;;;;;;16.13;42.19;101005.53;4997918;28;20476;-77
2022/02/05 08:46:10;;;;;;;9.50;2.58;;;;;;;15.93;42.90;101005.25;4997571;28;20121;-77
2022/02/05 08:48:36;;;;;;;9.82;2.75;;;;;;;16.17;42.31;101003.66;4998492;28;20029;-77
2022/02/05 08:51:03;;;;;;;9.25;2.97;;;;;;;16.28;42.04;101002.06;5008731;28;20451;-77
2022/02/05 08:53:29;;;;;;;12.23;3.45;;;;;;;16.33;42.30;100999.09;5005789;28;20033;-76
2022/02/05 08:55:56;;;;;;;13.07;3.63;;;;;;;16.13;42.91;100991.75;4998424;28;20158;-75
2022/02/05 08:58:21;;;;;;;11.10;3.08;;;;;;;16.29;42.81;100965.88;5002440;28;20108;-75
2022/02/05 09:00:49;;;;;;;14.25;4.30;;;;;;;16.13;43.44;100989.78;5014223;28;20897;-76
2022/02/05 09:03:59;;;;;;;13.50;3.75;;;;;;;16.41;42.88;100984.38;5017503;28;20029;-77
2022/02/05 09:06:08;;;;;;;16.42;4.65;;;;;;;16.38;43.34;100979.53;5008767;28;20053;-76
2022/02/05 09:08:43;;;;;;;15.48;3.75;;;;;;;16.47;43.40;100969.19;5012474;28;20030;-76
2022/02/05 09:14:35;;;;;;;17.88;4.03;;;;;;;16.61;43.00;100960.53;5013756;28;20029;-76
2022/02/05 09:16:38;;;;;;;13.40;2.90;;;;;;;16.63;43.09;100948.03;5009624;28;20117;-77
2022/02/05 09:19:04;;;;;;;18.58;4.43;;;;;;;16.65;42.88;100964.22;5013821;28;20388;-77
2022/02/05 09:21:32;;;;;;;16.38;3.58;;;;;;;16.85;42.90;100949.50;5013591;28;20032;-77
2022/02/05 09:24:01;;;;;;;16.60;4.18;;;;;;;16.94;42.46;100960.38;5011827;28;20045;-77
2022/02/05 09:26:29;;;;;;;17.05;3.97;;;;;;;17.07;42.44;100947.31;5012659;28;20114;-76
2022/02/05 09:29:02;;;;;;;18.00;3.92;;;;;;;17.03;42.23;100952.75;5012122;28;20022;-76
2022/02/05 09:31:31;;;;;;;12.73;3.78;;;;;;;16.98;42.54;100932.88;5010483;28;20412;-77
2022/02/05 09:33:58;;;;;;;16.77;4.28;;;;;;;16.69;43.05;100931.22;5011040;28;20144;-77
2022/02/05 09:36:26;;;;;;;13.82;3.47;;;;;;;17.17;42.39;100947.63;5011908;28;20173;-78
2022/02/05 09:38:53;;;;;;;15.90;4.13;;;;;;;16.88;43.04;100940.50;5011913;28;20054;-79
2022/02/05 09:41:18;;;;;;;24.08;7.57;;;;;;;17.04;42.85;100918.47;5011996;28;20025;-77
2022/02/05 09:43:48;;;;;;;14.93;5.13;;;;;;;16.86;43.48;100953.84;5011935;28;20464;-76
2022/02/05 09:46:15;;;;;;;12.55;3.30;;;;;;;16.42;44.35;100930.81;5012070;28;20034;-76
2022/02/05 09:48:44;;;;;;;15.30;3.83;;;;;;;17.00;43.10;100942.38;5012384;28;20501;-77
2022/02/05 09:51:16;;;;;;;14.52;4.05;;;;;;;16.83;43.60;100929.69;5012664;28;20017;-77
2022/02/05 09:53:50;;;;;;;15.13;3.50;;;;;;;16.92;43.45;100940.59;5009044;28;20116;-77
2022/02/05 09:56:17;;;;;;;15.70;4.18;;;;;;;16.69;44.06;100926.53;5012940;28;20036;-77
2022/02/05 09:58:44;;;;;;;20.00;5.57;;;;;;;17.36;42.76;100924.03;5013035;28;20022;-77
2022/02/05 10:01:19;;;;;;;28.75;5.97;;;;;;;17.48;42.46;100916.50;5012309;28;20029;-78
2022/02/05 10:03:47;;;;;;;15.90;4.25;;;;;;;17.23;42.99;100903.16;5012847;28;20033;-76
2022/02/05 10:06:19;;;;;;;16.75;3.90;;;;;;;17.25;43.12;100909.16;5013188;28;20380;-77
2022/02/05 10:08:54;;;;;;;21.77;4.68;;;;;;;17.20;43.68;100908.25;5012395;28;20026;-77
2022/02/05 10:11:19;;;;;;;24.40;4.82;;;;;;;17.19;43.87;100903.09;5011669;28;20096;-77
2022/02/05 10:13:45;;;;;;;18.88;4.13;;;;;;;17.29;43.63;100910.03;5012373;28;20417;-76
2022/02/05 10:16:12;;;;;;;13.25;4.68;;;;;;;17.42;43.18;100906.06;5012828;28;20573;-77
2022/02/05 10:18:40;;;;;;;16.45;4.32;;;;;;;17.58;43.12;100895.81;5013106;28;20056;-77
2022/02/05 10:21:19;;;;;;;16.70;5.30;;;;;;;17.46;43.47;100896.72;5012742;28;20032;-77
2022/02/05 10:24:04;;;;;;;17.02;5.22;;;;;;;17.13;44.27;100910.81;5011013;28;20113;-76
2022/02/05 10:26:43;;;;;;;18.10;4.15;;;;;;;17.41;43.83;100901.69;5010446;28;20045;-77
2022/02/05 10:29:14;;;;;;;14.48;4.47;;;;;;;17.18;43.93;100905.06;5011649;28;20026;-77
2022/02/05 10:32:09;;;;;;;24.23;4.63;;;;;;;17.12;44.33;100892.66;5011401;28;20038;-77
2022/02/05 10:35:06;;;;;;;18.85;5.22;;;;;;;16.97;44.32;100879.63;5011945;28;20365;-77
2022/02/05 10:37:49;;;;;;;20.30;5.53;;;;;;;17.25;43.87;100854.75;5011617;28;20029;-77
2022/02/05 10:40:22;;;;;;;20.13;4.50;;;;;;;17.14;44.36;100878.50;5012112;28;20091;-76
2022/02/05 10:45:40;;;;;;;20.50;4.70;;;;;;;17.24;44.43;100871.66;5013279;28;20100;-76
2022/02/05 10:48:08;;;;;;;18.83;5.05;;;;;;;17.49;43.66;100873.09;5016925;28;20109;-77
2022/02/05 10:50:34;;;;;;;21.65;4.47;;;;;;;17.39;44.09;100873.63;5016683;28;20029;-76
2022/02/05 10:53:25;;;;;;;15.27;5.18;;;;;;;17.67;43.72;100873.53;5014956;28;20034;-77
2022/02/05 10:58:45;;;;;;;24.30;6.03;;;;;;;17.79;43.80;100858.84;5016319;28;20033;-76
2022/02/05 11:07:08;;;;;;;15.00;4.65;;;;;;;17.64;44.45;100891.63;5016254;28;20399;-76
2022/02/05 11:09:35;;;;;;;18.50;5.22;;;;;;;17.70;44.40;100876.44;5016124;28;20108;-77
2022/02/05 11:20:15;;;;;;;17.75;5.10;;;;;;;17.63;44.89;100867.94;5016032;28;20079;-77
2022/02/05 11:22:50;;;;;;;21.52;3.80;;;;;;;17.83;44.54;100870.78;5015371;28;20659;-77
2022/02/05 11:25:17;;;;;;;15.60;3.83;;;;;;;18.26;43.66;100862.28;5015121;28;20555;-77
2022/02/05 11:27:48;;;;;;;17.10;4.55;;;;;;;17.96;44.29;100852.94;5015797;28;20428;-76
2022/02/05 11:30:35;;;;;;;19.98;5.15;;;;;;;17.88;44.63;100848.41;5015885;28;20041;-77
2022/02/05 11:33:18;;;;;;;20.85;5.32;;;;;;;17.69;44.61;100838.88;5015617;28;20053;-77
2022/02/05 11:38:37;;;;;;;20.67;4.90;;;;;;;17.49;45.44;100839.94;5015810;28;20461;-77
2022/02/05 11:41:06;;;;;;;19.42;4.95;;;;;;;17.55;44.83;100835.75;5015633;28;20025;-77
2022/02/05 11:43:33;;;;;;;18.70;4.80;;;;;;;17.49;45.29;100845.47;5015583;28;20030;-77
2022/02/05 11:46:21;;;;;;;19.10;4.50;;;;;;;17.55;45.14;100846.81;5015432;28;20125;-77
2022/02/05 11:48:50;;;;;;;23.13;4.65;;;;;;;17.72;44.82;100820.78;5015534;28;20033;-77
2022/02/05 11:51:24;;;;;;;14.18;5.13;;;;;;;17.69;45.25;100830.59;5015381;28;20056;-77
2022/02/05 11:53:59;;;;;;;14.35;4.22;;;;;;;17.31;46.40;100822.16;5013778;28;20025;-77
2022/02/05 11:59:29;;;;;;;9.70;3.17;;;;;;;17.59;45.43;100822.03;5014981;28;20026;-77
2022/02/05 12:02:14;;;;;;;19.48;4.32;;;;;;;17.65;45.45;100802.06;5015080;28;20026;-77
2022/02/05 12:04:39;;;;;;;13.60;4.03;;;;;;;17.77;45.21;100816.97;5015214;28;20441;-77
2022/02/05 12:07:07;;;;;;;11.02;3.10;;;;;;;17.71;45.20;100808.94;5015169;28;20053;-77
2022/02/05 12:09:40;;;;;;;11.40;2.78;;;;;;;17.88;44.93;100820.75;5014110;28;20022;-77
2022/02/05 12:15:21;;;;;;;14.50;3.40;;;;;;;18.26;44.49;100803.41;5010020;28;20038;-77
2022/02/05 12:20:27;;;;;;;16.35;4.05;;;;;;;18.08;44.89;100796.72;5014919;28;20061;-77
2022/02/05 12:22:59;;;;;;;14.13;3.88;;;;;;;18.14;44.83;100793.31;5013886;28;20032;-77
2022/02/05 12:25:24;;;;;;;10.75;2.47;;;;;;;18.25;44.68;100793.53;5014815;28;20104;-77
2022/02/05 12:27:51;;;;;;;11.77;3.50;;;;;;;18.06;44.97;100779.66;5014882;28;20494;-77
2022/02/05 12:30:29;;;;;;;11.13;3.15;;;;;;;18.20;44.61;100744.81;5014624;28;20095;-77
2022/02/05 12:32:56;;;;;;;12.00;3.13;;;;;;;18.21;44.61;100767.75;5014513;28;20038;-76
2022/02/05 12:35:23;;;;;;;14.43;3.95;;;;;;;18.35;44.19;100756.16;5014402;28;20029;-77
2022/02/05 12:37:48;;;;;;;8.95;2.72;;;;;;;17.96;45.01;100729.31;5014433;28;20025;-77
2022/02/05 12:40:14;;;;;;;6.93;3.08;;;;;;;18.16;44.51;100752.25;5014727;28;20492;-77
2022/02/05 12:42:41;;;;;;;10.00;3.58;;;;;;;18.40;44.20;100747.59;5014755;28;20022;-77
2022/02/05 12:45:08;;;;;;;10.45;3.65;;;;;;;18.15;44.14;100745.13;5014364;28;20446;-77
2022/02/05 12:47:39;;;;;;;10.88;3.30;;;;;;;17.86;44.95;100740.16;5014339;28;20108;-77
2022/02/05 12:50:10;;;;;;;16.52;4.53;;;;;;;18.20;43.99;100744.81;5014297;28;20560;-76
2022/02/05 12:52:36;;;;;;;17.00;3.90;;;;;;;17.97;44.48;100758.56;5013926;28;20385;-77
2022/02/05 12:55:04;;;;;;;14.52;5.10;;;;;;;17.85;44.75;100747.66;5013055;28;20032;-77
2022/02/05 12:57:31;;;;;;;17.15;3.67;;;;;;;18.25;43.90;100746.50;5014309;28;20349;-81
2022/02/05 13:00:11;;;;;;;13.35;3.08;;;;;;;18.26;43.79;100746.13;5014284;28;20569;-77
2022/02/05 13:02:37;;;;;;;;;;;;;;;17.81;44.64;100729.38;5014120;28;20692;-77
2022/02/05 13:05:03;;;;;;;17.23;4.07;;;;;;;18.55;43.04;100728.13;5014042;28;19910;-77
2022/02/05 13:07:28;;;;;;;12.63;3.63;;;;;;;18.66;42.66;100680.50;5014003;28;20037;-77
2022/02/05 13:09:57;;;;;;;17.35;5.25;;;;;;;18.67;42.81;100684.88;5012876;28;20133;-77
2022/02/05 13:12:30;;;;;;;19.15;5.43;;;;;;;18.48;42.66;100697.56;5013814;28;20034;-76
2022/02/05 13:15:03;;;;;;;11.20;2.92;;;;;;;18.54;42.58;100693.31;5013728;28;20524;-76
2022/02/05 13:17:46;;;;;;;14.13;4.22;;;;;;;18.44;42.67;100695.88;5013767;28;20026;-76
2022/02/05 13:34:33;;;;;;;14.30;3.03;;;;;;;18.60;41.84;100657.06;5090251;28;20502;-76
2022/02/05 13:42:33;;;;;;;14.45;5.05;;;;;;;18.50;42.18;100633.53;5089867;28;20020;-76
2022/02/05 13:45:10;;;;;;;14.02;3.40;;;;;;;18.69;41.86;100622.44;5089851;28;20023;-76
2022/02/05 13:47:45;;;;;;;12.80;3.78;;;;;;;18.38;42.41;100642.03;5089762;28;20021;-76
2022/02/05 13:50:15;;;;;;;15.68;4.32;;;;;;;18.80;41.99;100647.53;5089511;28;20044;-76
2022/02/05 13:52:44;;;;;;;10.10;3.00;;;;;;;18.75;42.15;100640.34;5089747;28;20107;-76
2022/02/05 13:55:12;;;;;;;12.73;3.38;;;;;;;18.62;42.59;100640.88;5088043;28;20063;-76
2022/02/05 13:57:51;;;;;;;10.15;2.70;;;;;;;18.73;42.28;100634.38;5089533;28;20037;-76
2022/02/05 14:00:17;;;;;;;10.20;2.90;;;;;;;19.07;41.65;100627.00;5089412;28;20047;-76
2022/02/05 14:02:42;;;;;;;11.20;2.95;;;;;;;18.98;41.98;100614.59;5089449;28;20024;-77
2022/02/05 14:05:10;;;;;;;11.30;3.42;;;;;;;18.73;42.61;100597.59;5089301;28;20406;-76
2022/02/05 14:07:46;;;;;;;11.50;3.22;;;;;;;18.14;43.63;100599.75;5089646;28;20031;-76
2022/02/05 14:10:23;;;;;;;7.57;2.45;;;;;;;18.34;43.38;100610.75;5089105;28;20036;-76
2022/02/05 14:12:57;;;;;;;8.40;3.00;;;;;;;18.11;43.87;100605.19;5089277;28;20034;-76
2022/02/05 14:15:25;;;;;;;13.27;3.08;;;;;;;18.71;42.41;100597.16;5089504;28;20077;-76
2022/02/05 14:18:11;;;;;;;8.52;2.50;;;;;;;18.09;43.64;100602.00;5089415;28;20493;-76
2022/02/05 14:20:57;;;;;;;9.73;2.83;;;;;;;18.44;43.37;100610.94;5088965;28;20024;-76
2022/02/05 14:23:28;;;;;;;9.93;2.78;;;;;;;18.49;43.07;100604.28;5084405;28;20028;-76
2022/02/05 14:26:00;;;;;;;12.40;3.15;;;;;;;18.87;42.52;100581.19;5089086;28;20425;-80
2022/02/05 14:28:34;;;;;;;8.82;3.22;;;;;;;18.46;43.35;100583.69;5096878;27;20043;-75